Time;durP1;ratioP1;P1;durP2;ratioP2;P2;SDS_P1;SDS_P2;PMS_P1;PMS_P2;Temp;Humidity;BMP_temperature;BMP_pressure;BME280_temperature;BME280_humidity;BME280_pressure;Samples;Min_cycle;Max_cycle;Signal;HPM_P1;HPM_P2
2022/08/24 00:01:30;;;;;;;5.43;2.55;;;21.80;1.00;;;;;;5040940;28;20211;-61
2022/08/24 00:03:58;;;;;;;10.98;4.10;;;21.70;1.00;;;;;;5041600;28;20704;-61
2022/08/24 00:06:25;;;;;;;14.38;6.88;;;21.70;1.00;;;;;;5034478;28;20204;-61
2022/08/24 00:08:54;;;;;;;29.00;10.68;;;21.70;1.00;;;;;;5046370;28;20204;-61
2022/08/24 00:11:21;;;;;;;30.20;9.23;;;21.60;1.00;;;;;;5034244;28;26581;-61
2022/08/24 00:13:49;;;;;;;8.70;4.18;;;21.60;1.00;;;;;;5036635;28;20205;-61
2022/08/24 00:16:16;;;;;;;10.70;2.72;;;21.60;1.00;;;;;;5051450;28;20205;-61
2022/08/24 00:18:45;;;;;;;3.17;1.58;;;21.50;1.00;;;;;;5043751;28;20214;-61
2022/08/24 00:21:12;;;;;;;3.10;1.75;;;21.50;1.00;;;;;;5045076;28;20215;-62
2022/08/24 00:23:39;;;;;;;4.65;1.98;;;21.40;1.00;;;;;;5053650;28;20224;-62
2022/08/24 00:26:07;;;;;;;3.88;1.88;;;21.40;1.00;;;;;;5038430;28;20204;-62
2022/08/24 00:28:35;;;;;;;2.40;1.73;;;21.30;1.00;;;;;;5041559;28;20211;-61
2022/08/24 00:31:02;;;;;;;4.70;1.67;;;21.30;1.00;;;;;;5031297;28;20204;-61
2022/08/24 00:33:29;;;;;;;2.13;1.52;;;21.30;1.00;;;;;;5041153;28;20205;-61
2022/08/24 00:35:57;;;;;;;2.28;1.42;;;21.30;1.00;;;;;;5059001;28;20200;-61
2022/08/24 00:38:25;;;;;;;4.95;2.10;;;;;;;;;;5036682;28;20575;-62
2022/08/24 00:40:52;;;;;;;10.30;1.70;;;21.30;1.00;;;;;;5041373;28;20232;-61
2022/08/24 00:43:22;;;;;;;2.05;1.60;;;22.90;1.00;;;;;;5042126;28;20224;-61
2022/08/24 00:46:02;;;;;;;3.25;2.08;;;21.40;1.00;;;;;;5042817;28;20281;-61
2022/08/24 00:48:33;;;;;;;4.22;1.70;;;21.30;1.00;;;;;;5032998;28;20209;-61
2022/08/24 00:51:06;;;;;;;7.22;1.85;;;21.40;1.00;;;;;;5061373;28;20189;-61
2022/08/24 00:53:37;;;;;;;3.50;1.65;;;21.50;1.00;;;;;;5028179;28;20804;-61
2022/08/24 00:56:10;;;;;;;3.70;1.73;;;21.40;1.00;;;;;;5053138;28;20535;-61
2022/08/24 00:58:41;;;;;;;4.43;1.45;;;21.30;1.00;;;;;;5038649;28;20203;-61
2022/08/24 01:01:09;;;;;;;1.70;1.60;;;21.30;1.00;;;;;;5046028;28;20212;-61
2022/08/24 01:03:37;;;;;;;3.95;1.90;;;20.80;1.00;;;;;;5035466;28;20728;-61
2022/08/24 01:06:06;;;;;;;2.88;1.63;;;21.30;1.00;;;;;;5056153;28;20483;-61
2022/08/24 01:08:33;;;;;;;2.20;1.50;;;21.20;1.00;;;;;;5035174;28;20638;-61
2022/08/24 01:11:04;;;;;;;3.00;1.58;;;21.30;1.00;;;;;;5043560;28;20276;-62
2022/08/24 01:13:33;;;;;;;3.22;1.80;;;21.00;1.00;;;;;;5049592;28;20698;-61
2022/08/24 01:16:04;;;;;;;2.47;1.48;;;21.20;1.00;;;;;;5011805;28;20872;-61
2022/08/24 01:18:48;;;;;;;2.40;1.67;;;21.10;1.00;;;;;;5055055;28;20403;-61
2022/08/24 01:21:21;;;;;;;2.75;1.48;;;21.10;1.00;;;;;;5053343;28;20937;-61
2022/08/24 01:23:53;;;;;;;15.50;6.95;;;21.00;1.00;;;;;;5022174;28;20465;-63
2022/08/24 01:26:23;;;;;;;40.83;15.00;;;21.00;1.00;;;;;;5041662;28;20229;-63
2022/08/24 01:28:54;;;;;;;62.25;19.77;;;21.00;1.00;;;;;;5024510;28;20686;-61
2022/08/24 01:31:22;;;;;;;53.15;20.10;;;20.90;1.00;;;;;;5045433;28;20216;-63
2022/08/24 01:33:50;;;;;;;25.90;9.38;;;20.90;1.00;;;;;;5044920;28;20243;-63
2022/08/24 01:36:22;;;;;;;16.60;6.45;;;20.80;1.00;;;;;;5038364;28;20211;-63
2022/08/24 01:38:51;;;;;;;8.13;2.92;;;20.80;1.00;;;;;;5037970;28;20204;-63
2022/08/24 01:41:17;;;;;;;3.10;2.00;;;20.80;1.00;;;;;;5037091;28;20215;-62
2022/08/24 01:43:45;;;;;;;3.42;1.92;;;20.80;1.00;;;;;;5052430;28;20224;-63
2022/08/24 01:46:12;;;;;;;2.58;1.83;;;20.70;1.00;;;;;;5010061;28;20205;-63
2022/08/24 01:48:39;;;;;;;2.35;1.70;;;;;;;;;;5059744;28;20192;-63
2022/08/24 01:51:06;;;;;;;7.60;1.88;;;20.60;1.00;;;;;;5047068;28;20855;-63
2022/08/24 01:53:33;;;;;;;3.42;1.80;;;20.60;1.00;;;;;;5041994;28;20210;-63
2022/08/24 01:56:01;;;;;;;3.03;1.60;;;20.60;1.00;;;;;;5032027;28;20252;-63
2022/08/24 01:58:28;;;;;;;1.95;1.50;;;20.60;1.00;;;;;;5058730;28;20657;-63
2022/08/24 02:00:55;;;;;;;2.75;1.90;;;;;;;;;;5018866;28;20211;-63
2022/08/24 02:03:23;;;;;;;2.72;1.80;;;20.50;1.00;;;;;;5037095;28;20236;-63
2022/08/24 02:05:50;;;;;;;3.03;1.75;;;20.50;1.00;;;;;;5046013;28;20205;-63
2022/08/24 02:08:18;;;;;;;2.25;1.75;;;20.50;1.00;;;;;;5045057;28;20193;-63
2022/08/24 02:10:44;;;;;;;2.70;1.80;;;20.50;1.00;;;;;;5048215;28;20196;-63
2022/08/24 02:13:13;;;;;;;5.78;1.67;;;20.60;1.00;;;;;;5037824;28;21496;-62
2022/08/24 02:15:40;;;;;;;9.40;1.67;;;;;;;;;;5024621;28;20228;-63
2022/08/24 02:18:08;;;;;;;2.78;1.90;;;20.50;1.00;;;;;;5048536;28;20192;-63
2022/08/24 02:20:36;;;;;;;5.35;1.95;;;20.50;1.00;;;;;;5016362;28;21025;-63
2022/08/24 02:23:05;;;;;;;4.95;2.00;;;20.50;1.00;;;;;;5054904;28;20594;-63
2022/08/24 02:25:32;;;;;;;2.67;1.63;;;20.50;1.00;;;;;;5043764;28;20634;-63
2022/08/24 02:28:00;;;;;;;2.67;1.67;;;20.50;1.00;;;;;;5047144;28;20196;-63
2022/08/24 02:30:29;;;;;;;3.47;1.75;;;20.50;1.00;;;;;;5054902;28;20197;-63
2022/08/24 02:32:57;;;;;;;3.17;2.10;;;20.60;1.00;;;;;;5028162;28;20212;-63
2022/08/24 02:35:24;;;;;;;4.05;1.85;;;20.50;1.00;;;;;;5027177;28;20288;-63
2022/08/24 02:37:51;;;;;;;3.72;1.80;;;20.50;1.00;;;;;;5056039;28;20204;-63
2022/08/24 02:40:19;;;;;;;3.05;2.28;;;20.40;1.50;;;;;;5050750;28;20211;-63
2022/08/24 02:42:46;;;;;;;5.40;2.08;;;20.40;1.60;;;;;;5039174;28;22616;-63
2022/08/24 02:45:14;;;;;;;2.10;1.90;;;20.50;91.20;;;;;;5059765;28;20227;-62
2022/08/24 02:47:42;;;;;;;2.20;1.70;;;20.40;19.00;;;;;;5030043;28;20429;-63
2022/08/24 02:50:13;;;;;;;30.33;12.00;;;20.30;43.00;;;;;;5044844;28;20207;-62
2022/08/24 02:52:40;;;;;;;51.63;18.20;;;20.30;35.60;;;;;;5044108;28;20205;-63
2022/08/24 02:55:09;;;;;;;43.65;15.02;;;20.40;42.50;;;;;;5063776;28;20317;-63
2022/08/24 02:57:36;;;;;;;42.88;14.75;;;20.10;99.90;;;;;;5041573;28;21578;-63
2022/08/24 03:00:07;;;;;;;35.75;11.52;;;20.30;70.30;;;;;;5058827;28;20207;-63
2022/08/24 03:02:33;;;;;;;16.98;5.40;;;20.10;99.90;;;;;;5029223;28;20262;-63
2022/08/24 03:05:02;;;;;;;5.72;2.85;;;20.30;99.90;;;;;;5044562;28;20250;-63
2022/08/24 03:07:29;;;;;;;2.92;2.10;;;20.20;93.90;;;;;;5044019;28;20208;-62
2022/08/24 03:09:55;;;;;;;2.25;1.60;;;20.20;94.90;;;;;;5051812;28;20200;-63
2022/08/24 03:12:22;;;;;;;4.65;2.20;;;20.20;99.90;;;;;;5040012;28;20205;-63
2022/08/24 03:14:49;;;;;;;3.72;2.08;;;19.90;99.90;;;;;;5035926;28;20223;-63
2022/08/24 03:17:16;;;;;;;3.65;1.90;;;20.20;99.90;;;;;;5035438;28;20216;-63
2022/08/24 03:19:43;;;;;;;5.50;2.30;;;20.10;99.90;;;;;;5032962;28;21416;-63
2022/08/24 03:22:12;;;;;;;2.30;1.92;;;20.30;99.90;;;;;;5047251;28;20219;-63
2022/08/24 03:24:38;;;;;;;2.97;2.40;;;20.10;99.90;;;;;;5055561;28;20389;-63
2022/08/24 03:27:05;;;;;;;3.90;2.05;;;20.10;99.90;;;;;;5040739;28;20204;-63
2022/08/24 03:29:33;;;;;;;3.72;1.90;;;20.10;99.90;;;;;;5050055;28;21178;-63
2022/08/24 03:32:00;;;;;;;4.35;1.92;;;20.30;99.90;;;;;;5041229;28;20201;-63
2022/08/24 03:34:27;;;;;;;4.68;1.90;;;20.10;99.90;;;;;;5031964;28;20338;-63
2022/08/24 03:36:54;;;;;;;2.45;2.00;;;20.00;99.90;;;;;;5034359;28;20210;-63
2022/08/24 03:39:22;;;;;;;2.85;2.00;;;20.00;99.90;;;;;;5055223;28;20196;-62
2022/08/24 03:41:49;;;;;;;5.18;1.63;;;20.10;99.90;;;;;;5045840;28;20580;-62
2022/08/24 03:44:16;;;;;;;3.17;1.98;;;20.00;99.90;;;;;;5044421;28;20220;-63
2022/08/24 03:46:45;;;;;;;5.18;2.05;;;20.00;99.90;;;;;;5058295;28;20200;-63
2022/08/24 03:49:13;;;;;;;4.53;1.90;;;20.00;99.90;;;;;;5038398;28;20233;-62
2022/08/24 03:51:40;;;;;;;4.32;2.42;;;20.00;99.90;;;;;;5042265;28;20431;-63
2022/08/24 03:54:09;;;;;;;2.60;1.80;;;20.00;99.90;;;;;;5051984;28;21339;-63
2022/08/24 03:56:38;;;;;;;2.78;1.80;;;20.00;99.90;;;;;;5043063;28;20204;-63
2022/08/24 03:59:06;;;;;;;2.70;2.22;;;20.00;99.90;;;;;;5043971;28;20196;-63
2022/08/24 04:01:33;;;;;;;2.05;1.85;;;19.90;99.90;;;;;;5052899;28;20198;-63
2022/08/24 04:04:00;;;;;;;4.22;2.30;;;19.90;99.90;;;;;;5033267;28;20231;-63
2022/08/24 04:06:27;;;;;;;3.97;2.00;;;19.90;99.90;;;;;;5043967;28;20372;-63
2022/08/24 04:08:54;;;;;;;3.15;2.10;;;19.90;99.90;;;;;;5046616;28;20839;-62
2022/08/24 04:11:23;;;;;;;3.38;2.10;;;19.90;99.90;;;;;;5043661;28;20209;-63
2022/08/24 04:13:55;;;;;;;3.17;1.92;;;19.80;99.90;;;;;;5049293;28;20270;-63
2022/08/24 04:16:22;;;;;;;4.50;2.00;;;19.90;99.90;;;;;;5060792;28;21738;-63
2022/08/24 04:18:50;;;;;;;3.85;2.08;;;19.70;99.90;;;;;;5036749;28;20208;-63
2022/08/24 04:21:19;;;;;;;4.15;2.00;;;19.80;99.90;;;;;;5048565;28;20205;-63
2022/08/24 04:23:46;;;;;;;1.73;1.63;;;19.80;99.90;;;;;;5050761;28;20258;-63
2022/08/24 04:26:13;;;;;;;2.53;2.28;;;19.80;99.90;;;;;;5056540;28;20192;-63
2022/08/24 04:28:40;;;;;;;6.78;2.00;;;19.80;99.90;;;;;;5037571;28;20208;-63
2022/08/24 04:31:09;;;;;;;4.47;1.70;;;19.70;99.90;;;;;;5059014;28;20203;-63
2022/08/24 04:33:36;;;;;;;3.13;2.00;;;19.70;99.90;;;;;;5054984;28;20227;-63
2022/08/24 04:36:08;;;;;;;2.55;1.95;;;17.90;99.90;;;;;;5039955;28;20212;-62
2022/08/24 04:38:35;;;;;;;3.80;1.95;;;19.70;99.90;;;;;;5048078;28;20273;-63
2022/08/24 04:41:04;;;;;;;3.88;2.03;;;20.80;99.90;;;;;;5038979;28;21247;-63
2022/08/24 04:43:31;;;;;;;5.65;2.50;;;19.60;99.90;;;;;;5027557;28;20694;-61
2022/08/24 04:45:59;;;;;;;5.45;2.30;;;19.60;99.90;;;;;;5044900;28;20246;-61
2022/08/24 04:48:27;;;;;;;2.17;1.98;;;19.60;99.90;;;;;;5048885;28;20314;-62
2022/08/24 04:50:54;;;;;;;4.15;1.80;;;19.60;99.90;;;;;;5037126;28;20782;-61
2022/08/24 04:53:21;;;;;;;7.85;2.00;;;20.00;99.90;;;;;;5027328;28;20289;-63
2022/08/24 04:55:49;;;;;;;3.67;2.25;;;19.70;99.90;;;;;;5054013;28;20216;-63
2022/08/24 04:58:18;;;;;;;2.80;2.10;;;19.60;99.90;;;;;;5045484;28;20281;-63
2022/08/24 05:00:46;;;;;;;8.13;2.33;;;19.60;99.90;;;;;;5039630;28;20292;-62
2022/08/24 05:03:13;;;;;;;2.42;2.05;;;19.70;99.90;;;;;;5042905;28;20228;-64
2022/08/24 05:05:44;;;;;;;6.68;1.95;;;19.70;1.00;;;;;;5027505;28;20235;-63
2022/08/24 05:08:12;;;;;;;3.25;2.08;;;19.60;99.90;;;;;;5058351;28;20211;-63
2022/08/24 05:10:40;;;;;;;2.90;2.15;;;20.00;1.00;;;;;;5054037;28;20205;-63
2022/08/24 05:13:07;;;;;;;2.42;2.22;;;19.70;1.00;;;;;;5062465;28;20204;-62
2022/08/24 05:15:36;;;;;;;6.75;2.25;;;19.70;1.00;;;;;;5031456;28;20670;-63
2022/08/24 05:18:03;;;;;;;6.28;2.20;;;19.80;1.00;;;;;;5054815;28;20207;-63
2022/08/24 05:20:30;;;;;;;2.63;2.13;;;19.80;1.00;;;;;;5032382;28;20580;-63
2022/08/24 05:22:58;;;;;;;2.85;2.22;;;19.80;1.00;;;;;;5064096;28;20216;-62
2022/08/24 05:25:25;;;;;;;4.78;2.22;;;19.80;1.00;;;;;;5045764;28;20231;-63
2022/08/24 05:27:52;;;;;;;3.33;2.17;;;19.60;1.00;;;;;;5059898;28;20200;-62
2022/08/24 05:30:19;;;;;;;3.67;2.30;;;19.80;1.00;;;;;;5031630;28;20208;-62
2022/08/24 05:32:46;;;;;;;2.70;2.10;;;19.80;1.00;;;;;;5052569;28;20224;-63
2022/08/24 05:35:13;;;;;;;3.65;2.22;;;19.80;1.00;;;;;;5054422;28;20233;-62
2022/08/24 05:37:41;;;;;;;4.30;2.22;;;19.80;1.00;;;;;;5025907;28;20219;-62
2022/08/24 05:40:12;;;;;;;4.40;1.98;;;19.80;1.00;;;;;;5053750;28;20220;-61
2022/08/24 05:42:40;;;;;;;3.05;2.20;;;19.80;1.00;;;;;;5058028;28;20189;-63
2022/08/24 05:45:08;;;;;;;3.17;1.90;;;19.80;1.00;;;;;;5058589;28;20235;-62
2022/08/24 05:47:35;;;;;;;3.80;2.20;;;19.80;1.00;;;;;;5054745;28;20647;-63
2022/08/24 05:50:02;;;;;;;2.35;2.00;;;19.80;1.00;;;;;;5047959;28;20231;-63
2022/08/24 05:52:30;;;;;;;2.90;2.20;;;19.60;1.00;;;;;;5023862;28;20204;-63
2022/08/24 05:54:58;;;;;;;5.07;2.30;;;19.90;1.00;;;;;;5060231;28;21689;-63
2022/08/24 05:57:31;;;;;;;4.53;2.45;;;19.70;1.00;;;;;;5050422;28;20193;-62
2022/08/24 05:59:58;;;;;;;4.07;2.50;;;19.80;1.00;;;;;;5062584;28;20558;-63
2022/08/24 06:02:25;;;;;;;4.82;2.00;;;19.80;1.00;;;;;;5046241;28;20196;-62
2022/08/24 06:04:52;;;;;;;3.75;2.10;;;19.80;1.00;;;;;;5058891;28;20223;-63
2022/08/24 06:07:18;;;;;;;7.22;2.30;;;19.80;1.00;;;;;;5018492;28;20211;-62
2022/08/24 06:09:46;;;;;;;5.95;2.30;;;19.60;1.00;;;;;;5052490;28;20205;-62
2022/08/24 06:12:13;;;;;;;4.20;2.20;;;19.80;1.00;;;;;;5043593;28;20293;-62
2022/08/24 06:14:45;;;;;;;3.15;1.90;;;19.80;1.00;;;;;;5042922;28;20238;-63
2022/08/24 06:17:11;;;;;;;3.65;2.15;;;19.80;1.00;;;;;;5049277;28;20200;-63
2022/08/24 06:19:38;;;;;;;4.10;2.45;;;19.90;1.00;;;;;;5058101;28;20220;-63
2022/08/24 06:22:06;;;;;;;3.13;2.30;;;19.90;1.00;;;;;;5053952;28;20211;-63
2022/08/24 06:27:21;;;;;;;4.53;2.42;;;20.00;1.00;;;;;;5046732;28;20227;-63
2022/08/24 06:29:50;;;;;;;4.53;2.33;;;20.10;1.00;;;;;;5059843;28;21201;-63
2022/08/24 06:32:17;;;;;;;3.55;2.42;;;20.20;1.00;;;;;;5053746;28;20205;-62
2022/08/24 06:34:45;;;;;;;3.00;2.30;;;20.20;1.00;;;;;;5063335;28;20200;-63
2022/08/24 06:37:11;;;;;;;5.80;2.05;;;20.10;1.00;;;;;;5049861;28;20208;-63
2022/08/24 06:39:38;;;;;;;7.07;2.35;;;20.40;1.00;;;;;;5026627;28;20220;-62
2022/08/24 06:42:05;;;;;;;3.22;2.53;;;20.70;1.00;;;;;;5055304;28;20724;-63
2022/08/24 06:44:33;;;;;;;5.07;2.35;;;20.40;1.00;;;;;;5053439;28;20212;-62
2022/08/24 06:47:01;;;;;;;2.53;1.92;;;20.50;1.00;;;;;;5037520;28;20263;-61
2022/08/24 06:49:30;;;;;;;5.72;2.05;;;20.60;1.00;;;;;;5045473;28;20304;-61
2022/08/24 06:51:57;;;;;;;9.50;2.30;;;20.70;1.00;;;;;;5035633;28;21464;-62
2022/08/24 06:54:24;;;;;;;3.13;1.85;;;20.70;1.00;;;;;;5026245;28;20232;-62
2022/08/24 06:56:50;;;;;;;5.35;2.30;;;20.70;1.00;;;;;;5050387;28;20224;-61
2022/08/24 06:59:17;;;;;;;5.00;2.50;;;20.80;1.00;;;;;;5037318;28;20574;-61
2022/08/24 07:01:44;;;;;;;6.38;2.30;;;20.90;1.00;;;;;;5047455;28;20217;-61
2022/08/24 07:04:12;;;;;;;4.90;2.58;;;20.80;1.00;;;;;;5029095;28;20233;-61
2022/08/24 07:06:39;;;;;;;6.15;2.17;;;21.10;1.00;;;;;;5052446;28;20439;-62
2022/08/24 07:09:06;;;;;;;4.68;2.30;;;21.00;1.00;;;;;;5044037;28;20227;-61
2022/08/24 07:11:33;;;;;;;6.00;2.25;;;20.90;1.00;;;;;;5013245;28;20515;-62
2022/08/24 07:14:00;;;;;;;4.72;2.10;;;21.10;1.00;;;;;;5052694;28;20215;-62
2022/08/24 07:16:27;;;;;;;10.77;2.17;;;21.10;1.00;;;;;;5034707;28;20315;-63
2022/08/24 07:18:54;;;;;;;5.05;2.22;;;21.20;99.90;;;;;;5046956;28;20199;-62
2022/08/24 07:21:23;;;;;;;5.68;2.50;;;21.20;99.90;;;;;;5028579;28;20204;-63
2022/08/24 07:23:53;;;;;;;6.85;2.60;;;21.10;99.90;;;;;;5056134;28;20414;-63
2022/08/24 07:26:22;;;;;;;2.63;1.92;;;21.30;99.90;;;;;;5016508;28;20327;-63
2022/08/24 07:28:49;;;;;;;5.57;2.53;;;21.40;99.90;;;;;;5040759;28;20199;-63
2022/08/24 07:31:16;;;;;;;6.85;2.25;;;21.40;99.90;;;;;;5037197;28;20577;-63
2022/08/24 07:33:43;;;;;;;7.35;2.13;;;21.40;99.90;;;;;;5052518;28;20205;-63
2022/08/24 07:36:11;;;;;;;5.70;2.60;;;21.50;99.90;;;;;;5040089;28;20205;-63
2022/08/24 07:38:39;;;;;;;2.83;1.95;;;21.40;99.90;;;;;;5061166;28;21054;-63
2022/08/24 07:41:06;;;;;;;2.70;2.28;;;;;;;;;;5037256;28;20259;-63
2022/08/24 07:43:33;;;;;;;4.10;2.40;;;21.60;99.90;;;;;;5030220;28;20918;-63
2022/08/24 07:46:00;;;;;;;4.20;2.22;;;21.60;99.90;;;;;;5041813;28;20227;-61
2022/08/24 07:48:27;;;;;;;3.67;2.28;;;21.90;99.90;;;;;;5040309;28;20742;-61
2022/08/24 07:50:54;;;;;;;8.13;2.75;;;21.80;99.90;;;;;;5046497;28;20229;-61
2022/08/24 07:53:21;;;;;;;4.68;2.67;;;22.00;99.90;;;;;;5051544;28;20197;-61
2022/08/24 07:55:55;;;;;;;13.50;2.38;;;21.80;99.90;;;;;;5055000;28;20203;-60
2022/08/24 07:58:23;;;;;;;2.83;2.17;;;21.80;99.90;;;;;;5030655;28;20314;-63
2022/08/24 08:00:50;;;;;;;5.20;2.30;;;22.10;99.90;;;;;;5036564;28;20228;-63
2022/08/24 08:03:17;;;;;;;3.25;2.20;;;22.20;99.90;;;;;;5031197;28;20232;-61
2022/08/24 08:05:44;;;;;;;2.35;2.13;;;22.00;99.90;;;;;;5034132;28;21501;-61
2022/08/24 08:08:10;;;;;;;4.60;2.22;;;22.10;99.90;;;;;;5059180;28;20790;-61
2022/08/24 08:10:39;;;;;;;7.10;2.42;;;22.10;99.90;;;;;;5052047;28;20189;-61
2022/08/24 08:13:08;;;;;;;5.25;2.15;;;22.10;99.90;;;;;;5039851;28;20285;-61
2022/08/24 08:15:34;;;;;;;7.18;2.30;;;22.00;99.90;;;;;;5057075;28;20311;-61
2022/08/24 08:18:01;;;;;;;5.68;2.58;;;22.10;99.90;;;;;;5050685;28;20206;-61
2022/08/24 08:20:28;;;;;;;4.50;2.28;;;22.20;99.90;;;;;;5033103;28;20208;-61
2022/08/24 08:25:39;;;;;;;9.23;2.33;;;22.20;99.90;;;;;;5056739;28;20765;-61
2022/08/24 08:28:07;;;;;;;2.15;1.95;;;22.20;99.90;;;;;;5016226;28;20727;-61
2022/08/24 08:30:34;;;;;;;4.25;2.20;;;22.40;99.90;;;;;;5032718;28;20364;-62
2022/08/24 08:33:01;;;;;;;3.65;2.20;;;23.20;99.90;;;;;;5049984;28;20223;-62
2022/08/24 08:35:28;;;;;;;4.10;2.28;;;22.60;99.90;;;;;;5030902;28;20592;-62
2022/08/24 08:37:56;;;;;;;5.75;2.10;;;22.80;99.90;;;;;;5037449;28;20234;-62
2022/08/24 08:40:34;;;;;;;3.92;2.05;;;22.70;99.90;;;;;;5022823;28;20228;-62
2022/08/24 08:43:03;;;;;;;4.57;2.10;;;22.70;99.90;;;;;;5059257;28;20192;-62
2022/08/24 08:45:47;;;;;;;4.78;2.60;;;22.80;99.90;;;;;;5019676;28;20231;-62
2022/08/24 08:49:07;;;;;;;10.55;2.33;;;22.80;99.90;;;;;;5023257;28;21234;-62
2022/08/24 08:51:59;;;;;;;2.40;2.15;;;22.80;99.90;;;;;;5038403;28;20210;-62
2022/08/24 08:54:44;;;;;;;4.10;2.20;;;22.70;99.90;;;;;;5036754;28;20383;-62
2022/08/24 08:57:32;;;;;;;5.32;2.60;;;23.00;99.90;;;;;;5046407;28;20858;-62
2022/08/24 09:00:09;;;;;;;4.05;2.30;;;23.00;95.50;;;;;;5028510;28;20250;-62
2022/08/24 09:03:04;;;;;;;3.85;2.15;;;24.40;65.50;;;;;;5055413;28;20273;-62
2022/08/24 09:05:56;;;;;;;4.63;2.22;;;23.10;70.80;;;;;;5043313;28;20591;-62
2022/08/24 09:08:35;;;;;;;2.97;2.05;;;23.10;87.30;;;;;;5029224;28;20668;-62
2022/08/24 09:11:11;;;;;;;8.98;2.10;;;23.20;42.60;;;;;;5038702;28;20220;-62
2022/08/24 09:13:51;;;;;;;7.55;2.30;;;23.00;35.90;;;;;;5052322;28;20413;-62
2022/08/24 09:16:30;;;;;;;2.65;2.25;;;23.50;28.30;;;;;;5022750;28;20231;-62
2022/08/24 09:19:18;;;;;;;7.35;2.22;;;23.40;13.70;;;;;;5047450;28;20254;-62
2022/08/24 09:22:11;;;;;;;5.93;2.17;;;23.50;30.80;;;;;;5044693;28;20586;-62
2022/08/24 09:24:54;;;;;;;3.78;2.05;;;23.70;10.30;;;;;;5029867;28;21080;-62
2022/08/24 09:27:31;;;;;;;11.15;2.28;;;23.70;1.00;;;;;;5039260;28;20223;-62
2022/08/24 09:30:09;;;;;;;7.20;2.20;;;23.80;5.90;;;;;;5053500;28;20222;-62
2022/08/24 09:33:05;;;;;;;6.20;2.28;;;23.70;3.00;;;;;;5016587;28;20278;-61
2022/08/24 09:35:45;;;;;;;5.53;3.30;;;23.90;1.00;;;;;;5053412;28;20216;-62
2022/08/24 09:38:21;;;;;;;6.18;2.13;;;24.00;1.00;;;;;;5040830;28;20228;-62
2022/08/24 09:41:21;;;;;;;3.63;2.25;;;24.00;1.00;;;;;;5036393;28;20291;-62
2022/08/24 09:44:21;;;;;;;3.67;2.13;;;24.10;1.00;;;;;;5053142;28;20224;-62
2022/08/24 09:47:16;;;;;;;3.08;1.85;;;24.30;1.00;;;;;;5002088;28;20739;-62
2022/08/24 09:50:03;;;;;;;2.83;2.08;;;23.80;1.00;;;;;;5051736;28;20226;-62
2022/08/24 09:53:05;;;;;;;13.63;2.70;;;24.50;1.00;;;;;;5042046;28;20239;-62
2022/08/24 09:56:08;;;;;;;5.90;2.22;;;24.50;1.00;;;;;;5027987;28;20582;-61
2022/08/24 09:58:53;;;;;;;7.22;1.92;;;24.80;1.00;;;;;;5055303;28;20603;-61
2022/08/24 10:01:28;;;;;;;10.60;2.00;;;24.70;1.00;;;;;;5038860;28;20227;-62
2022/08/24 10:04:08;;;;;;;7.45;3.33;;;24.80;1.00;;;;;;5043592;28;20227;-62
2022/08/24 10:06:46;;;;;;;10.00;4.15;;;24.80;1.00;;;;;;5053311;28;20287;-62
2022/08/24 10:09:47;;;;;;;17.08;6.00;;;25.00;1.00;;;;;;5044215;28;20219;-61
2022/08/24 10:12:30;;;;;;;13.45;4.57;;;25.00;1.00;;;;;;5043027;28;20200;-62
2022/08/24 10:15:04;;;;;;;3.10;2.10;;;25.10;1.00;;;;;;5053503;28;20204;-62
2022/08/24 10:17:41;;;;;;;5.20;2.50;;;25.30;1.00;;;;;;5030384;28;20215;-62
2022/08/24 10:20:22;;;;;;;3.58;2.15;;;24.90;1.00;;;;;;5053289;28;20218;-62
2022/08/24 10:23:18;;;;;;;4.63;2.42;;;25.30;1.00;;;;;;5045499;28;20219;-62
2022/08/24 10:25:52;;;;;;;5.63;1.90;;;25.30;1.00;;;;;;5027683;28;20224;-63
2022/08/24 10:28:53;;;;;;;6.10;2.20;;;25.40;1.00;;;;;;5033096;28;20737;-62
2022/08/24 10:31:26;;;;;;;7.97;2.03;;;25.40;1.00;;;;;;5028336;28;20746;-62
2022/08/24 10:34:04;;;;;;;382.45;40.47;;;24.10;1.00;;;;;;5022705;28;20231;-62
2022/08/24 10:36:44;;;;;;;415.10;45.80;;;25.50;1.00;;;;;;5043584;28;20439;-62
2022/08/24 10:39:44;;;;;;;39.03;3.85;;;25.60;1.00;;;;;;5047184;28;20200;-62
2022/08/24 10:45:56;;;;;;;4.00;1.90;;;25.50;1.00;;;;;;5055964;28;20239;-62
2022/08/24 10:48:46;;;;;;;7.50;2.08;;;25.50;1.00;;;;;;5026686;28;20308;-62
2022/08/24 10:51:27;;;;;;;15.20;2.85;;;25.70;1.00;;;;;;5038128;28;20574;-62
2022/08/24 10:53:55;;;;;;;8.02;2.40;;;25.70;1.00;;;;;;5046754;28;20227;-62
2022/08/24 10:56:35;;;;;;;3.53;2.10;;;25.70;1.00;;;;;;5037596;28;22550;-62
2022/08/24 10:59:15;;;;;;;5.40;2.03;;;25.80;1.00;;;;;;5042320;28;20219;-62
2022/08/24 11:02:00;;;;;;;6.07;2.28;;;25.80;1.00;;;;;;5047847;28;20301;-63
2022/08/24 11:04:29;;;;;;;10.93;2.38;;;25.80;1.00;;;;;;5029386;28;20227;-62
2022/08/24 11:07:08;;;;;;;8.98;2.40;;;26.00;1.00;;;;;;5043195;28;21667;-62
2022/08/24 11:09:46;;;;;;;7.15;2.15;;;26.10;1.00;;;;;;5044717;28;20200;-62
2022/08/24 11:12:22;;;;;;;6.97;2.65;;;26.10;1.00;;;;;;5042050;28;20200;-62
2022/08/24 11:14:49;;;;;;;2.78;1.92;;;26.20;1.00;;;;;;5045691;28;20227;-62
2022/08/24 11:17:20;;;;;;;2.92;1.85;;;26.30;1.00;;;;;;5057376;28;20203;-62
2022/08/24 11:19:48;;;;;;;2.67;1.90;;;26.50;1.00;;;;;;5024959;28;20228;-62
2022/08/24 11:22:29;;;;;;;6.38;2.28;;;27.40;1.00;;;;;;5033339;28;20216;-62
2022/08/24 11:24:59;;;;;;;2.92;2.05;;;26.40;1.00;;;;;;5040570;28;20224;-62
2022/08/24 11:27:31;;;;;;;5.75;2.72;;;26.30;1.00;;;;;;5041905;28;20232;-62
2022/08/24 11:30:01;;;;;;;89.55;11.73;;;26.40;1.00;;;;;;5030155;28;20201;-62
2022/08/24 11:32:36;;;;;;;8.85;2.95;;;26.50;1.00;;;;;;5040546;28;20211;-62
2022/08/24 11:35:07;;;;;;;3.45;2.25;;;26.50;1.00;;;;;;5021018;28;20204;-62
2022/08/24 11:37:37;;;;;;;7.63;2.50;;;26.70;1.00;;;;;;5038243;28;20235;-62
2022/08/24 11:40:06;;;;;;;9.68;2.03;;;26.80;1.00;;;;;;5044030;28;20205;-62
2022/08/24 11:42:46;;;;;;;4.70;2.50;;;26.70;1.00;;;;;;5051957;28;20216;-62
2022/08/24 11:45:19;;;;;;;6.70;2.28;;;26.80;1.00;;;;;;5049206;28;20211;-62
2022/08/24 11:47:58;;;;;;;217.35;25.73;;;26.70;1.00;;;;;;5049240;28;20251;-62
2022/08/24 11:50:35;;;;;;;10.30;3.38;;;26.70;1.00;;;;;;5039585;28;21036;-63
2022/08/24 11:53:22;;;;;;;12.30;2.08;;;29.60;1.00;;;;;;5041868;28;20266;-62
2022/08/24 11:56:00;;;;;;;5.30;2.00;;;26.80;1.00;;;;;;5058798;28;20227;-62
2022/08/24 11:58:40;;;;;;;6.50;2.15;;;26.90;1.00;;;;;;5059406;28;20196;-62
2022/08/24 12:01:13;;;;;;;8.40;2.30;;;27.00;1.00;;;;;;5035540;28;20231;-62
2022/08/24 12:03:51;;;;;;;2.88;2.00;;;27.00;1.00;;;;;;5029417;28;20239;-61
2022/08/24 12:06:30;;;;;;;5.63;2.15;;;27.10;1.00;;;;;;5031737;28;20226;-62
2022/08/24 12:09:05;;;;;;;6.93;2.83;;;27.10;1.00;;;;;;5040318;28;20239;-62
2022/08/24 12:11:38;;;;;;;11.48;2.47;;;27.20;1.00;;;;;;5045355;28;20709;-62
2022/08/24 12:14:09;;;;;;;6.55;2.15;;;27.10;1.00;;;;;;5055657;28;20220;-62
2022/08/24 12:16:42;;;;;;;4.03;2.05;;;27.20;1.00;;;;;;5038142;28;20227;-61
2022/08/24 12:19:15;;;;;;;6.88;1.90;;;27.30;1.00;;;;;;5023247;28;20231;-62
2022/08/24 12:21:46;;;;;;;4.18;2.22;;;27.30;1.00;;;;;;5041417;28;20220;-62
2022/08/24 12:24:16;;;;;;;4.32;2.40;;;27.30;1.00;;;;;;5025391;28;20229;-62
2022/08/24 12:26:46;;;;;;;4.20;2.05;;;26.70;1.00;;;;;;5049721;28;20598;-62
2022/08/24 12:29:21;;;;;;;3.65;2.35;;;27.40;1.00;;;;;;5045875;28;20231;-62
2022/08/24 12:31:53;;;;;;;3.72;1.80;;;27.40;1.00;;;;;;5046007;28;21021;-62
2022/08/24 12:34:29;;;;;;;7.43;2.05;;;27.50;1.00;;;;;;5027130;28;21350;-62
2022/08/24 12:37:03;;;;;;;2.63;2.13;;;27.50;1.00;;;;;;5036905;28;20238;-62
2022/08/24 12:39:35;;;;;;;5.72;2.30;;;27.50;1.00;;;;;;5040197;28;21146;-62
2022/08/24 12:42:09;;;;;;;6.18;2.30;;;27.50;1.00;;;;;;5049826;28;20200;-62
2022/08/24 12:44:45;;;;;;;4.65;2.05;;;27.60;1.00;;;;;;5058441;28;20219;-61
2022/08/24 12:47:17;;;;;;;15.13;3.20;;;27.70;1.00;;;;;;5034485;28;20750;-63
2022/08/24 12:53:44;;;;;;;6.18;2.08;;;27.60;1.00;;;;;;5022132;28;20335;-62
2022/08/24 12:56:34;;;;;;;16.90;2.67;;;27.00;1.00;;;;;;5010724;28;20729;-63
2022/08/24 12:59:07;;;;;;;3.80;2.05;;;27.70;1.00;;;;;;5053987;28;20197;-62
2022/08/24 13:01:37;;;;;;;11.25;2.45;;;27.70;1.00;;;;;;5048508;28;20221;-62
2022/08/24 13:04:11;;;;;;;9.32;2.30;;;26.50;1.00;;;;;;5038118;28;20241;-62
2022/08/24 13:06:42;;;;;;;7.88;2.13;;;27.80;1.00;;;;;;5033581;28;20220;-62
2022/08/24 13:09:31;;;;;;;6.97;2.03;;;27.80;1.00;;;;;;5047597;28;20286;-62
2022/08/24 13:12:19;;;;;;;8.63;2.13;;;27.80;1.00;;;;;;5020424;28;20229;-62
2022/08/24 13:14:50;;;;;;;3.10;2.20;;;28.00;1.00;;;;;;5050996;28;20204;-65
2022/08/24 13:17:18;;;;;;;2.25;1.80;;;27.90;1.00;;;;;;5045163;28;20204;-62
2022/08/24 13:20:06;;;;;;;4.38;2.15;;;28.00;1.00;;;;;;5044544;28;20225;-62
2022/08/24 13:22:47;;;;;;;3.38;2.17;;;28.00;1.00;;;;;;5039280;28;20203;-62
2022/08/24 13:25:57;;;;;;;5.38;2.10;;;28.10;1.00;;;;;;5043988;28;20230;-62
2022/08/24 13:28:41;;;;;;;8.02;2.00;;;28.10;1.00;;;;;;5047157;28;20226;-62
2022/08/24 13:31:24;;;;;;;2.92;1.90;;;28.20;1.00;;;;;;5035413;28;20724;-62